GCLA

La Palma Airport

Airport
ICAO code
GCLA
IATA Code
SPC
Summary
ICAO Region
EUR
ICAO Territory
Location

Villa de Mazo,

Serving
La Palma
Elevation
108 ft
Coordinates
28° 37' 30" N , 17° 45' 20" W
KCC
Csa
Airport WX
Volcanic Ash
Metar
Observation
GCLA 112200Z AUTO 03012KT 350V050 CAVOK 23/16 Q1016
Station
La Palma / Aeropuerto
Date/Time
2022-08-11 22:00:00
Wind direction
30°
Wind speed
12 kts
Lowest cloud amount
clouds and visibility OK
Temperature
23°C
Dew point
16°C
Humidity
64%
QNH
1016 hPa
Weather condition
n/a

Description

International airport serving the island of La Palma.

Climatology

Dry-summer subtropical ”Mediterranean" climate (Köppen climate classification Csa) - characterized by hot, dry summers and mild winters. During the summer, subtropical high pressure cells dominate, making rainfall unlikely except for the occasional thunderstorm. In the winter, periodic storms bring rain (snow at higher elevations).

Runways

Designator Length Width Surface Rops
1/19 2200 45 ASP Yes/Yes

Airport map

Aerial View

SKYbrary Partners:

Safety knowledge contributed by: